createdAt,value
2023-04-28T00:01:27.090Z,10.13
2023-04-28T00:03:54.669Z,7.83
2023-04-28T00:06:20.951Z,7.80
2023-04-28T00:08:47.814Z,8.53
2023-04-28T00:11:14.028Z,10.70
2023-04-28T00:13:40.174Z,8.50
2023-04-28T00:16:07.168Z,11.50
2023-04-28T00:18:33.348Z,10.33
2023-04-28T00:21:00.814Z,9.63
2023-04-28T00:23:26.954Z,12.60
2023-04-28T00:25:54.652Z,12.47
2023-04-28T00:28:33.631Z,10.03
2023-04-28T00:31:00.954Z,8.60
2023-04-28T00:33:27.108Z,15.07
2023-04-28T00:35:58.936Z,9.43
2023-04-28T00:38:25.141Z,8.87
2023-04-28T00:40:51.257Z,11.33
2023-04-28T00:43:18.012Z,9.43
2023-04-28T00:45:44.735Z,13.37
2023-04-28T00:48:10.987Z,12.10
2023-04-28T00:50:37.168Z,10.57
2023-04-28T00:53:03.369Z,13.20
2023-04-28T00:55:32.221Z,10.07
2023-04-28T00:57:59.079Z,11.17
2023-04-28T01:00:26.014Z,8.77
2023-04-28T01:02:53.538Z,8.17
2023-04-28T01:05:19.970Z,14.73
2023-04-28T01:07:46.111Z,9.40
2023-04-28T01:10:12.258Z,9.43
2023-04-28T01:12:38.399Z,12.20
2023-04-28T01:15:05.705Z,15.13
2023-04-28T01:17:32.567Z,14.60
2023-04-28T01:19:58.774Z,10.87
2023-04-28T01:22:25.086Z,11.20
2023-04-28T01:24:51.866Z,10.20
2023-04-28T01:27:18.016Z,12.23
2023-04-28T01:29:44.145Z,10.70
2023-04-28T01:32:10.356Z,10.93
2023-04-28T01:34:36.471Z,8.90
2023-04-28T01:37:02.657Z,10.87
2023-04-28T01:39:28.810Z,13.03
2023-04-28T01:41:55.559Z,13.17
2023-04-28T01:44:21.682Z,10.23
2023-04-28T01:46:47.866Z,11.27
2023-04-28T01:49:14.004Z,11.10
2023-04-28T01:51:41.935Z,12.80
2023-04-28T01:54:08.120Z,14.13
2023-04-28T01:56:34.299Z,16.73
2023-04-28T01:59:01.117Z,10.07
2023-04-28T02:01:27.344Z,13.93
2023-04-28T02:03:54.468Z,10.10
2023-04-28T02:06:20.842Z,15.47
2023-04-28T02:08:46.994Z,13.97
2023-04-28T02:11:13.252Z,14.83
2023-04-28T02:13:39.392Z,12.87
2023-04-28T02:16:07.010Z,11.07
2023-04-28T02:18:35.198Z,15.10
2023-04-28T02:21:08.296Z,14.90
2023-04-28T02:23:34.800Z,12.33
2023-04-28T02:26:02.806Z,12.77
2023-04-28T02:28:29.353Z,16.37
2023-04-28T02:31:03.460Z,12.03
2023-04-28T02:33:30.511Z,14.97
2023-04-28T02:35:58.826Z,12.00
2023-04-28T02:38:24.948Z,12.47
2023-04-28T02:40:57.370Z,13.93
2023-04-28T02:43:23.504Z,12.03
2023-04-28T02:45:49.818Z,9.87
2023-04-28T02:48:16.210Z,10.47
2023-04-28T02:50:43.017Z,11.33
2023-04-28T02:53:09.210Z,12.17
2023-04-28T02:55:35.323Z,14.93
2023-04-28T02:58:01.485Z,10.30
2023-04-28T03:00:27.734Z,12.67
2023-04-28T03:02:54.611Z,11.80
2023-04-28T03:05:20.835Z,13.60
2023-04-28T03:07:47.600Z,13.17
2023-04-28T03:10:13.719Z,10.43
2023-04-28T03:12:40.585Z,12.90
2023-04-28T03:15:08.370Z,15.20
2023-04-28T03:17:35.769Z,13.83
2023-04-28T03:20:02.133Z,11.20
2023-04-28T03:22:28.323Z,13.80
2023-04-28T03:24:55.106Z,11.53
2023-04-28T03:27:21.610Z,16.93
2023-04-28T03:29:47.737Z,15.87
2023-04-28T03:32:13.991Z,12.50
2023-04-28T03:34:40.294Z,11.17
2023-04-28T03:37:06.444Z,13.47
2023-04-28T03:39:32.577Z,12.13
2023-04-28T03:41:59.403Z,14.63
2023-04-28T03:44:25.885Z,11.50
2023-04-28T03:46:52.057Z,13.57
2023-04-28T03:49:18.322Z,16.37
2023-04-28T03:51:44.520Z,7.30
2023-04-28T03:54:10.658Z,10.63
2023-04-28T03:56:36.772Z,17.93
2023-04-28T03:59:03.537Z,20.47
2023-04-28T04:01:29.745Z,15.30
2023-04-28T04:03:56.014Z,14.20
2023-04-28T04:06:22.470Z,15.67
2023-04-28T04:08:48.916Z,13.00
2023-04-28T04:11:15.050Z,14.70
2023-04-28T04:13:41.754Z,11.73
2023-04-28T04:16:08.591Z,12.20
2023-04-28T04:18:34.858Z,13.13
2023-04-28T04:21:01.348Z,9.73
2023-04-28T04:23:27.449Z,11.87
2023-04-28T04:25:53.817Z,12.00
2023-04-28T04:28:20.134Z,12.53
2023-04-28T04:30:47.062Z,15.97
2023-04-28T04:33:13.944Z,14.33
2023-04-28T04:35:40.209Z,11.77
2023-04-28T04:38:06.952Z,17.73
2023-04-28T04:40:33.114Z,13.20
2023-04-28T04:42:59.409Z,15.40
2023-04-28T04:45:26.157Z,15.47
2023-04-28T04:47:52.540Z,18.57
2023-04-28T04:50:19.608Z,12.27
2023-04-28T04:52:45.739Z,12.07
2023-04-28T04:55:11.878Z,13.53
2023-04-28T04:57:38.007Z,17.33
2023-04-28T05:00:05.072Z,9.83
2023-04-28T05:02:31.571Z,17.87
2023-04-28T05:05:08.170Z,13.23
2023-04-28T05:07:44.627Z,15.87
2023-04-28T05:10:10.987Z,15.97
2023-04-28T05:12:37.394Z,13.43
2023-04-28T05:15:04.226Z,14.53
2023-04-28T05:17:30.747Z,10.23
2023-04-28T05:19:56.914Z,11.13
2023-04-28T05:22:23.118Z,10.57
2023-04-28T05:24:49.958Z,13.03
2023-04-28T05:27:16.067Z,15.80
2023-04-28T05:29:42.394Z,10.63
2023-04-28T05:32:08.596Z,11.47
2023-04-28T05:34:34.744Z,16.30
2023-04-28T05:37:01.127Z,12.17
2023-04-28T05:39:27.461Z,16.23
2023-04-28T05:41:54.273Z,10.50
2023-04-28T05:44:20.402Z,12.10
2023-04-28T05:46:46.551Z,9.37
2023-04-28T05:49:12.694Z,11.87
2023-04-28T05:51:39.006Z,14.87
2023-04-28T05:54:05.363Z,18.13
2023-04-28T05:56:31.584Z,14.00
2023-04-28T05:58:59.996Z,13.70
2023-04-28T06:01:26.267Z,8.57
2023-04-28T06:03:53.093Z,13.37
2023-04-28T06:06:19.525Z,8.60
2023-04-28T06:08:46.984Z,12.27
2023-04-28T06:11:13.223Z,14.20
2023-04-28T06:13:39.430Z,8.00
2023-04-28T06:16:06.904Z,12.27
2023-04-28T06:18:33.992Z,13.13
2023-04-28T06:21:00.197Z,11.00
2023-04-28T06:23:26.461Z,8.27
2023-04-28T06:25:52.683Z,7.70
2023-04-28T06:28:18.799Z,8.77
2023-04-28T06:30:45.301Z,7.90
2023-04-28T06:33:12.070Z,13.13
2023-04-28T06:35:38.866Z,9.67
2023-04-28T06:38:05.708Z,7.33
2023-04-28T06:40:31.839Z,8.13
2023-04-28T06:42:58.009Z,9.50
2023-04-28T06:45:24.410Z,8.37
2023-04-28T06:47:51.639Z,9.07
2023-04-28T06:50:18.676Z,8.67
2023-04-28T06:52:44.913Z,7.60
2023-04-28T06:55:14.724Z,12.27
2023-04-28T06:57:41.733Z,10.70
2023-04-28T07:00:09.064Z,10.20
2023-04-28T07:02:36.097Z,8.20
2023-04-28T07:05:02.686Z,9.77
2023-04-28T07:07:29.580Z,10.17
2023-04-28T07:09:55.710Z,10.53
2023-04-28T07:12:22.563Z,10.43
2023-04-28T07:14:49.866Z,8.13
2023-04-28T07:17:16.399Z,10.47
2023-04-28T07:19:42.567Z,9.03
2023-04-28T07:22:08.754Z,8.73
2023-04-28T07:24:35.743Z,15.93
2023-04-28T07:27:02.922Z,14.90
2023-04-28T07:29:33.261Z,10.33
2023-04-28T07:31:59.447Z,10.80
2023-04-28T07:34:26.615Z,8.23
2023-04-28T07:36:53.061Z,10.30
2023-04-28T07:39:19.376Z,12.90
2023-04-28T07:41:46.182Z,13.13
2023-04-28T07:44:12.325Z,11.60
2023-04-28T07:46:38.498Z,17.63
2023-04-28T07:49:04.720Z,13.37
2023-04-28T07:51:31.113Z,10.63
2023-04-28T07:53:57.366Z,11.87
2023-04-28T07:56:25.090Z,11.13
2023-04-28T07:58:52.190Z,14.50
2023-04-28T08:01:18.579Z,16.03
2023-04-28T08:03:44.946Z,11.80
2023-04-28T08:06:11.327Z,12.50
2023-04-28T08:08:37.582Z,12.67
2023-04-28T08:11:04.184Z,10.43
2023-04-28T08:13:30.396Z,15.50
2023-04-28T08:15:57.305Z,10.97
2023-04-28T08:18:23.693Z,10.87
2023-04-28T08:20:49.796Z,9.80
2023-04-28T08:23:15.995Z,9.83
2023-04-28T08:25:42.108Z,12.23
2023-04-28T08:28:08.365Z,11.77
2023-04-28T08:30:34.615Z,12.30
2023-04-28T08:33:01.400Z,11.53
2023-04-28T08:35:27.595Z,12.70
2023-04-28T08:37:53.787Z,8.33
2023-04-28T08:40:20.245Z,8.73
2023-04-28T08:42:46.838Z,9.27
2023-04-28T08:45:13.481Z,12.63
2023-04-28T08:47:40.497Z,9.27
2023-04-28T08:50:08.664Z,13.53
2023-04-28T08:52:35.478Z,13.37
2023-04-28T08:55:05.705Z,12.83
2023-04-28T08:57:35.981Z,7.47
2023-04-28T09:00:02.646Z,10.20
2023-04-28T09:02:28.971Z,11.17
2023-04-28T09:04:55.685Z,13.97
2023-04-28T09:07:22.848Z,10.80
2023-04-28T09:09:49.156Z,11.70
2023-04-28T09:12:15.634Z,11.83
2023-04-28T09:14:41.887Z,11.50
2023-04-28T09:17:12.028Z,13.83
2023-04-28T09:19:39.034Z,11.27
2023-04-28T09:22:21.828Z,13.90
2023-04-28T09:24:54.297Z,13.27
2023-04-28T09:27:26.363Z,10.90
2023-04-28T09:29:53.623Z,15.73
2023-04-28T09:32:21.285Z,16.20
2023-04-28T09:34:49.470Z,13.03
2023-04-28T09:37:16.756Z,14.03
2023-04-28T09:39:44.178Z,15.73
2023-04-28T09:42:11.046Z,11.53
2023-04-28T09:44:37.677Z,13.60
2023-04-28T09:47:19.811Z,17.73
2023-04-28T09:49:54.079Z,16.47
2023-04-28T09:52:20.853Z,17.17
2023-04-28T09:54:49.424Z,14.73
2023-04-28T09:57:17.457Z,17.97
2023-04-28T09:59:47.159Z,14.57
2023-04-28T10:02:40.857Z,14.13
2023-04-28T10:05:01.325Z,14.77
2023-04-28T10:07:27.658Z,16.40
2023-04-28T10:09:55.575Z,17.43
2023-04-28T10:12:23.854Z,16.30
2023-04-28T10:14:53.689Z,15.17
2023-04-28T10:17:21.011Z,19.17
2023-04-28T10:19:49.559Z,16.70
2023-04-28T10:22:33.798Z,16.63
2023-04-28T10:25:13.637Z,16.30
2023-04-28T10:27:42.796Z,15.80
2023-04-28T10:30:22.776Z,16.93
2023-04-28T10:33:22.036Z,18.37
2023-04-28T10:35:48.186Z,19.63
2023-04-28T10:38:15.443Z,18.53
2023-04-28T10:40:43.730Z,19.07
2023-04-28T10:43:11.351Z,18.13
2023-04-28T10:46:03.129Z,16.87
2023-04-28T10:49:06.083Z,19.10
2023-04-28T10:51:33.194Z,23.03
2023-04-28T10:54:18.417Z,27.40
2023-04-28T10:57:19.070Z,25.10
2023-04-28T10:59:46.218Z,28.60
2023-04-28T11:02:43.612Z,31.30
2023-04-28T11:05:13.914Z,26.93
2023-04-28T11:07:40.196Z,24.73
2023-04-28T11:10:07.364Z,23.90
2023-04-28T11:12:33.537Z,20.33
2023-04-28T11:15:11.889Z,21.17
2023-04-28T11:17:40.268Z,25.10
2023-04-28T11:20:08.365Z,23.73
2023-04-28T11:22:34.713Z,20.67
2023-04-28T11:25:02.134Z,25.33
2023-04-28T11:27:29.416Z,23.37
2023-04-28T11:29:55.579Z,22.47
2023-04-28T11:32:27.840Z,23.50
2023-04-28T11:34:53.971Z,21.90
2023-04-28T11:37:20.784Z,18.63
2023-04-28T11:39:47.170Z,20.90
2023-04-28T11:42:13.472Z,19.00
2023-04-28T11:44:39.840Z,20.83
2023-04-28T11:47:06.984Z,15.60
2023-04-28T11:49:43.350Z,12.00
2023-04-28T11:52:11.250Z,13.53
2023-04-28T11:54:38.013Z,10.97
2023-04-28T11:57:04.933Z,12.03
2023-04-28T11:59:33.247Z,9.67
2023-04-28T12:02:01.972Z,10.70
2023-04-28T12:04:31.041Z,9.43
2023-04-28T12:07:02.329Z,12.10
2023-04-28T12:09:28.861Z,11.27
2023-04-28T12:11:56.319Z,8.90
2023-04-28T12:14:22.929Z,10.43
2023-04-28T12:16:49.928Z,8.43
2023-04-28T12:19:16.866Z,10.30
2023-04-28T12:21:43.207Z,9.73
2023-04-28T12:24:20.668Z,11.57
2023-04-28T12:26:47.387Z,8.63
2023-04-28T12:29:36.537Z,8.50
2023-04-28T12:32:02.712Z,8.90
2023-04-28T12:34:30.474Z,8.23
2023-04-28T12:36:56.686Z,7.73
2023-04-28T12:39:24.076Z,9.17
2023-04-28T12:41:50.211Z,9.13
2023-04-28T12:44:16.624Z,7.53
2023-04-28T12:46:42.880Z,9.47
2023-04-28T12:49:09.141Z,10.37
2023-04-28T12:51:37.764Z,7.60
2023-04-28T12:54:05.727Z,6.97
2023-04-28T12:56:33.139Z,8.50
2023-04-28T12:59:01.127Z,8.93
2023-04-28T13:01:27.294Z,9.50
2023-04-28T13:03:53.947Z,9.67
2023-04-28T13:06:20.346Z,5.83
2023-04-28T13:08:46.584Z,7.97
2023-04-28T13:11:21.914Z,5.90
2023-04-28T13:13:49.314Z,5.53
2023-04-28T13:16:15.531Z,5.37
2023-04-28T13:18:41.927Z,5.80
2023-04-28T13:21:08.070Z,5.37
2023-04-28T13:23:34.207Z,5.83
2023-04-28T13:26:00.563Z,7.33
2023-04-28T13:28:27.953Z,7.77
2023-04-28T13:30:54.869Z,5.70
2023-04-28T13:33:21.097Z,5.80
2023-04-28T13:35:47.275Z,5.10
2023-04-28T13:38:13.428Z,5.23
2023-04-28T13:40:41.541Z,7.73
2023-04-28T13:43:07.707Z,11.83
2023-04-28T13:45:33.837Z,16.03
2023-04-28T13:48:00.768Z,5.10
2023-04-28T13:50:26.923Z,5.07
2023-04-28T13:52:53.254Z,4.13
2023-04-28T13:55:26.607Z,7.23
2023-04-28T13:57:52.987Z,4.40
2023-04-28T14:00:19.690Z,4.10
2023-04-28T14:02:48.557Z,3.57
2023-04-28T14:05:16.190Z,3.73
2023-04-28T14:07:42.410Z,4.13
2023-04-28T14:10:10.251Z,5.40
2023-04-28T14:12:36.628Z,4.80
2023-04-28T14:15:02.952Z,7.13
2023-04-28T14:17:29.919Z,4.50
2023-04-28T14:19:56.099Z,6.17
2023-04-28T14:22:23.000Z,3.63
2023-04-28T14:24:49.532Z,3.30
2023-04-28T14:27:16.014Z,5.57
2023-04-28T14:29:43.079Z,3.33
2023-04-28T14:32:09.274Z,2.40
2023-04-28T14:34:35.671Z,3.13
2023-04-28T14:37:01.873Z,3.00
2023-04-28T14:39:28.711Z,1.73
2023-04-28T14:41:55.017Z,2.07
2023-04-28T14:44:21.242Z,1.90
2023-04-28T14:46:48.027Z,2.03
2023-04-28T14:49:14.181Z,2.30
2023-04-28T14:51:40.317Z,2.20
2023-04-28T14:54:08.327Z,1.70
2023-04-28T14:56:35.755Z,3.53
2023-04-28T14:59:01.935Z,1.73
2023-04-28T15:01:28.433Z,4.10
2023-04-28T15:03:54.743Z,2.20
2023-04-28T15:06:21.444Z,3.33
2023-04-28T15:08:47.590Z,3.33
2023-04-28T15:11:13.703Z,1.10
2023-04-28T15:13:42.929Z,3.63
2023-04-28T15:16:09.320Z,1.17
2023-04-28T15:18:35.482Z,1.20
2023-04-28T15:21:01.765Z,2.50
2023-04-28T15:23:28.062Z,1.83
2023-04-28T15:25:54.291Z,1.30
2023-04-28T15:28:21.308Z,2.37
2023-04-28T15:30:48.095Z,1.17
2023-04-28T15:33:16.757Z,2.67
2023-04-28T15:35:43.359Z,2.97
2023-04-28T15:38:10.357Z,2.33
2023-04-28T15:40:38.159Z,5.70
2023-04-28T15:43:04.305Z,2.07
2023-04-28T15:45:31.040Z,2.13
2023-04-28T15:47:57.995Z,2.87
2023-04-28T15:50:24.212Z,2.40
2023-04-28T15:52:50.697Z,2.40
2023-04-28T15:55:18.401Z,2.60
2023-04-28T15:57:45.411Z,2.03
2023-04-28T16:00:14.083Z,2.00
2023-04-28T16:02:40.939Z,2.23
2023-04-28T16:05:08.696Z,2.60
2023-04-28T16:07:38.398Z,1.93
2023-04-28T16:10:06.430Z,1.50
2023-04-28T16:12:34.413Z,1.20
2023-04-28T16:15:00.760Z,1.50
2023-04-28T16:17:28.275Z,6.00
2023-04-28T16:19:54.518Z,3.87
2023-04-28T16:22:21.319Z,1.43
2023-04-28T16:24:47.546Z,1.30
2023-04-28T16:27:14.093Z,1.67
2023-04-28T16:29:40.229Z,1.93
2023-04-28T16:32:06.466Z,1.83
2023-04-28T16:34:32.755Z,4.07
2023-04-28T16:36:58.895Z,2.57
2023-04-28T16:39:25.655Z,2.47
2023-04-28T16:41:51.816Z,7.33
2023-04-28T16:44:17.938Z,3.70
2023-04-28T16:46:44.086Z,4.10
2023-04-28T16:49:11.705Z,7.93
2023-04-28T16:51:37.857Z,4.27
2023-04-28T16:54:25.789Z,4.57
2023-04-28T16:56:52.754Z,4.83
2023-04-28T16:59:19.291Z,4.30
2023-04-28T17:01:45.598Z,4.17
2023-04-28T17:04:12.635Z,5.27
2023-04-28T17:06:39.290Z,4.80
2023-04-28T17:09:05.575Z,4.43
2023-04-28T17:11:31.818Z,6.00
2023-04-28T17:13:58.802Z,4.50
2023-04-28T17:16:25.069Z,5.87
2023-04-28T17:18:52.252Z,5.10
2023-04-28T17:21:18.538Z,3.80
2023-04-28T17:23:44.720Z,3.60
2023-04-28T17:26:11.058Z,2.97
2023-04-28T17:28:37.509Z,3.50
2023-04-28T17:31:05.594Z,4.10
2023-04-28T17:33:31.910Z,4.87
2023-04-28T17:35:58.224Z,2.93
2023-04-28T17:38:24.487Z,3.47
2023-04-28T17:40:50.887Z,3.37
2023-04-28T17:43:19.569Z,3.63
2023-04-28T17:45:45.864Z,3.27
2023-04-28T17:48:12.984Z,3.03
2023-04-28T17:50:39.345Z,3.77
2023-04-28T17:53:05.649Z,4.47
2023-04-28T17:55:32.039Z,3.20
2023-04-28T17:57:58.405Z,3.80
2023-04-28T18:00:26.115Z,4.27
2023-04-28T18:02:54.365Z,3.40
2023-04-28T18:05:23.378Z,3.77
2023-04-28T18:07:49.576Z,4.90
2023-04-28T18:10:16.370Z,3.40
2023-04-28T18:12:42.725Z,4.43
2023-04-28T18:15:10.638Z,4.63
2023-04-28T18:17:37.065Z,4.17
2023-04-28T18:20:05.692Z,3.63
2023-04-28T18:22:32.729Z,7.40
2023-04-28T18:24:59.053Z,4.53
2023-04-28T18:27:25.700Z,4.30
2023-04-28T18:29:52.257Z,5.20
2023-04-28T18:32:18.628Z,5.23
2023-04-28T18:34:45.517Z,5.63
2023-04-28T18:37:11.711Z,5.40
2023-04-28T18:39:38.920Z,4.83
2023-04-28T18:42:05.249Z,4.90
2023-04-28T18:44:31.474Z,4.93
2023-04-28T18:46:57.965Z,5.10
2023-04-28T18:49:24.907Z,5.07
2023-04-28T18:51:51.348Z,6.07
2023-04-28T18:54:18.015Z,5.63
2023-04-28T18:56:45.379Z,7.50
2023-04-28T18:59:11.839Z,6.60
2023-04-28T19:01:39.037Z,7.27
2023-04-28T19:04:05.970Z,6.10
2023-04-28T19:06:32.481Z,5.67
2023-04-28T19:08:58.768Z,6.73
2023-04-28T19:11:25.347Z,6.00
2023-04-28T19:13:55.295Z,6.23
2023-04-28T19:16:22.841Z,5.77
2023-04-28T19:18:49.085Z,5.23
2023-04-28T19:21:15.575Z,5.83
2023-04-28T19:23:42.471Z,5.50
2023-04-28T19:26:09.763Z,9.60
2023-04-28T19:28:36.054Z,5.77
2023-04-28T19:31:02.955Z,7.23
2023-04-28T19:33:29.171Z,6.80
2023-04-28T19:35:55.411Z,5.27
2023-04-28T19:38:22.665Z,6.57
2023-04-28T19:40:49.062Z,7.23
2023-04-28T19:43:16.723Z,7.03
2023-04-28T19:45:43.032Z,6.53
2023-04-28T19:48:09.890Z,6.20
2023-04-28T19:50:36.665Z,5.90
2023-04-28T19:53:02.979Z,9.47
2023-04-28T19:55:29.264Z,6.13
2023-04-28T19:57:56.708Z,5.80
2023-04-28T20:00:23.562Z,7.03
2023-04-28T20:02:50.650Z,5.60
2023-04-28T20:05:18.975Z,6.73
2023-04-28T20:07:45.585Z,5.70
2023-04-28T20:10:12.335Z,5.13
2023-04-28T20:12:38.889Z,5.90
2023-04-28T20:15:06.358Z,6.50
2023-04-28T20:17:32.868Z,5.63
2023-04-28T20:19:59.294Z,8.53
2023-04-28T20:22:26.418Z,6.77
2023-04-28T20:24:53.207Z,5.60
2023-04-28T20:27:19.616Z,5.53
2023-04-28T20:29:46.061Z,6.30
2023-04-28T20:32:12.337Z,6.57
2023-04-28T20:34:38.658Z,5.63
2023-04-28T20:37:05.760Z,5.87
2023-04-28T20:39:32.726Z,7.33
2023-04-28T20:41:59.961Z,5.30
2023-04-28T20:44:26.384Z,6.30
2023-04-28T20:46:52.775Z,6.03
2023-04-28T20:49:19.364Z,7.53
2023-04-28T20:51:45.665Z,10.30
2023-04-28T20:54:12.509Z,7.60
2023-04-28T20:56:39.464Z,10.17
2023-04-28T20:59:06.028Z,8.33
2023-04-28T21:01:32.439Z,8.00
2023-04-28T21:03:58.702Z,9.33
2023-04-28T21:06:24.978Z,8.77
2023-04-28T21:08:52.107Z,6.97
2023-04-28T21:11:18.291Z,8.83
2023-04-28T21:13:45.367Z,6.77
2023-04-28T21:16:15.383Z,6.27
2023-04-28T21:18:44.420Z,7.20
2023-04-28T21:21:10.795Z,6.20
2023-04-28T21:23:38.557Z,11.00
2023-04-28T21:26:05.894Z,7.33
2023-04-28T21:28:33.240Z,6.20
2023-04-28T21:31:00.692Z,7.77
2023-04-28T21:33:26.956Z,6.53
2023-04-28T21:35:53.164Z,6.10
2023-04-28T21:38:19.524Z,8.53
2023-04-28T21:40:45.859Z,6.33
2023-04-28T21:43:12.126Z,6.17
2023-04-28T21:45:38.533Z,6.70
2023-04-28T21:48:07.127Z,7.00
2023-04-28T21:50:34.247Z,5.13
2023-04-28T21:53:00.764Z,6.00
2023-04-28T21:55:27.004Z,6.77
2023-04-28T21:57:55.185Z,7.20
2023-04-28T22:00:22.085Z,6.97
2023-04-28T22:02:48.572Z,7.50
2023-04-28T22:05:15.871Z,6.93
2023-04-28T22:07:42.119Z,8.67
2023-04-28T22:10:09.655Z,8.10
2023-04-28T22:12:35.872Z,8.23
2023-04-28T22:15:02.172Z,9.80
2023-04-28T22:17:28.492Z,8.70
2023-04-28T22:19:54.844Z,9.57
2023-04-28T22:22:21.676Z,13.43
2023-04-28T22:24:49.195Z,11.50
2023-04-28T22:27:15.450Z,10.73
2023-04-28T22:29:43.583Z,14.43
2023-04-28T22:32:11.092Z,9.57
2023-04-28T22:34:37.346Z,11.90
2023-04-28T22:37:03.632Z,11.07
2023-04-28T22:39:30.573Z,11.30
2023-04-28T22:41:57.266Z,11.13
2023-04-28T22:44:23.540Z,14.27
2023-04-28T22:46:50.206Z,12.37
2023-04-28T22:49:16.393Z,14.07
2023-04-28T22:51:42.603Z,11.70
2023-04-28T22:54:08.777Z,12.03
2023-04-28T22:56:35.678Z,13.90
2023-04-28T22:59:02.379Z,12.30
2023-04-28T23:01:28.682Z,17.43
2023-04-28T23:03:55.106Z,14.83
2023-04-28T23:06:21.521Z,12.93
2023-04-28T23:08:47.674Z,13.43
2023-04-28T23:11:13.836Z,14.07
2023-04-28T23:13:40.795Z,13.73
2023-04-28T23:16:07.435Z,12.07
2023-04-28T23:18:33.792Z,13.37
2023-04-28T23:21:00.113Z,13.63
2023-04-28T23:23:26.349Z,14.77
2023-04-28T23:25:52.584Z,16.20
2023-04-28T23:28:18.754Z,14.87
2023-04-28T23:30:46.019Z,13.43
2023-04-28T23:33:12.160Z,14.83
2023-04-28T23:35:41.400Z,17.33
2023-04-28T23:38:07.749Z,16.30
2023-04-28T23:40:33.959Z,14.27
2023-04-28T23:43:00.196Z,14.20
2023-04-28T23:45:26.391Z,14.80
2023-04-28T23:47:53.342Z,12.10
2023-04-28T23:50:19.801Z,14.20
2023-04-28T23:52:46.418Z,15.60
2023-04-28T23:55:12.694Z,16.57
2023-04-28T23:57:39.175Z,13.30
